createdAt,value
2018-09-28T00:09:54.755Z,6.6
2018-09-28T00:19:54.045Z,6.6
2018-09-28T00:29:54.784Z,6.6
2018-09-28T00:39:54.047Z,6.5
2018-09-28T00:49:53.579Z,6.4
2018-09-28T00:59:52.982Z,6.2
2018-09-28T01:09:58.540Z,6.2
2018-09-28T01:19:58.152Z,6.2
2018-09-28T01:29:57.795Z,6.1
2018-09-28T01:39:57.323Z,6.2
2018-09-28T01:49:57.030Z,6.1
2018-09-28T01:59:56.499Z,6.2
2018-09-28T02:09:55.963Z,6.4
2018-09-28T02:19:55.747Z,6.7
2018-09-28T02:29:55.276Z,6.5
2018-09-28T02:39:55.108Z,6.8
2018-09-28T02:49:54.762Z,7.2
2018-09-28T02:59:54.390Z,7.7
2018-09-28T03:09:54.359Z,8
2018-09-28T03:19:53.992Z,8.4
2018-09-28T03:29:53.529Z,8.5
2018-09-28T03:39:53.072Z,8.7
2018-09-28T03:49:52.777Z,8.9
2018-09-28T03:59:52.277Z,9.2
2018-09-28T04:09:51.802Z,9.3
2018-09-28T04:19:51.581Z,9.5
2018-09-28T04:29:50.805Z,9.7
2018-09-28T04:39:50.046Z,9.9
2018-09-28T04:49:49.722Z,9.9
2018-09-28T04:59:49.129Z,9.9
2018-09-28T05:09:48.520Z,10
2018-09-28T05:19:48.088Z,10.1
2018-09-28T05:29:47.516Z,10.1
2018-09-28T05:39:47.059Z,10.2
2018-09-28T05:49:49.413Z,10.4
2018-09-28T05:59:48.931Z,10.6
2018-09-28T06:09:48.103Z,10.8
2018-09-28T06:19:47.445Z,10.9
2018-09-28T06:29:46.864Z,10.8
2018-09-28T07:20:19.984Z,10.4
2018-09-28T07:30:19.927Z,10.3
2018-09-28T07:40:22.066Z,10.1
2018-09-28T08:30:55.114Z,9.9
2018-09-28T08:40:55.841Z,8.9
2018-09-28T09:01:03.721Z,8.6
2018-09-28T09:11:03.256Z,8.5
2018-09-28T10:01:30.062Z,7.7
2018-09-28T10:11:29.610Z,8.1
2018-09-28T10:21:29.396Z,8
2018-09-28T11:11:56.593Z,7
2018-09-28T11:21:57.355Z,7.2
2018-09-28T11:31:57.254Z,6.9
2018-09-28T11:52:07.014Z,7.5
2018-09-28T12:02:06.423Z,7.1
2018-09-28T12:12:11.512Z,7.2
2018-09-28T12:22:14.603Z,6.6
2018-09-28T12:42:23.159Z,6.5
2018-09-28T12:52:22.534Z,6.8
2018-09-28T13:02:22.135Z,7.1
2018-09-28T13:12:21.375Z,7.2
2018-09-28T13:22:20.909Z,7.1
2018-09-28T13:32:21.921Z,7.2
2018-09-28T13:42:21.427Z,6.3
2018-09-28T13:52:21.034Z,6.3
2018-09-28T14:02:20.584Z,6.5
2018-09-28T14:12:20.051Z,6.4
2018-09-28T14:22:19.366Z,5.4
2018-09-28T14:32:18.764Z,5.6
2018-09-28T14:52:26.148Z,6.4
2018-09-28T15:02:25.122Z,6.4
2018-09-28T15:12:24.935Z,6.1
2018-09-28T15:22:24.432Z,6.2
2018-09-28T15:42:31.661Z,6.3
2018-09-28T15:52:30.904Z,6.5
2018-09-28T16:02:29.980Z,6.4
2018-09-28T16:12:32.382Z,6.3
2018-09-28T16:22:34.829Z,6
2018-09-28T16:32:34.370Z,5.8
2018-09-28T16:42:34.029Z,5.6
2018-09-28T16:52:34.062Z,5.7
2018-09-28T17:02:33.398Z,5.7
2018-09-28T17:12:32.784Z,5.6
2018-09-28T17:22:35.708Z,5.6
2018-09-28T17:32:34.948Z,5.6
2018-09-28T17:42:34.198Z,5.6
2018-09-28T18:02:41.618Z,5.5
2018-09-28T18:12:41.029Z,5.3
2018-09-28T18:22:43.266Z,5.2
2018-09-28T18:42:51.523Z,5.1
2018-09-28T18:52:53.398Z,5.1
2018-09-28T19:02:52.962Z,5.1
2018-09-28T19:12:52.383Z,5.1
2018-09-28T19:22:51.587Z,5
2018-09-28T19:32:51.231Z,5
2018-09-28T19:42:50.626Z,5
2018-09-28T19:52:50.028Z,5
2018-09-28T20:02:49.103Z,5
2018-09-28T20:12:48.506Z,5
2018-09-28T20:22:47.936Z,5
2018-09-28T20:32:47.809Z,5
2018-09-28T20:42:47.053Z,5
2018-09-28T20:52:46.247Z,5
2018-09-28T21:02:45.903Z,5
2018-09-28T21:12:45.552Z,4.9
2018-09-28T21:22:44.868Z,4.9
2018-09-28T21:32:44.222Z,4.8
2018-09-28T21:42:43.514Z,4.8
2018-09-28T21:52:42.743Z,4.7
2018-09-28T22:02:42.128Z,4.7
2018-09-28T22:12:41.586Z,4.7
2018-09-28T22:22:41.333Z,4.7
2018-09-28T22:32:40.486Z,4.6
2018-09-28T22:42:39.976Z,4.6
2018-09-28T22:52:39.570Z,4.5
2018-09-28T23:02:39.084Z,4.5
2018-09-28T23:12:38.126Z,4.4
2018-09-28T23:32:42.849Z,4.3
2018-09-28T23:42:42.287Z,4.3
2018-09-28T23:52:41.713Z,4.2
